Time;durP1;ratioP1;P1;durP2;ratioP2;P2;SDS_P1;SDS_P2;PMS_P1;PMS_P2;Temp;Humidity;BMP_temperature;BMP_pressure;BME280_temperature;BME280_humidity;BME280_pressure;Samples;Min_cycle;Max_cycle;Signal;HPM_P1;HPM_P2
2022/06/08 00:00:25;;;;;;;40.65;21.70;;;15.80;99.90;;;;;;10446038;28;20044;-83
2022/06/08 00:05:26;;;;;;;47.30;26.50;;;15.80;99.90;;;;;;10453120;28;20041;-84
2022/06/08 00:10:27;;;;;;;46.22;24.77;;;15.80;99.90;;;;;;10453128;28;20041;-82
2022/06/08 00:15:27;;;;;;;60.20;28.65;;;15.80;99.90;;;;;;10452408;28;20025;-85
2022/06/08 00:20:28;;;;;;;46.55;24.95;;;15.70;99.90;;;;;;10461309;28;20504;-82
2022/06/08 00:25:30;;;;;;;49.28;26.52;;;15.70;99.90;;;;;;10450974;28;20037;-84
2022/06/08 00:30:30;;;;;;;67.10;29.60;;;15.70;99.90;;;;;;10450724;28;20033;-84
2022/06/08 00:35:31;;;;;;;52.25;25.73;;;15.70;99.90;;;;;;10450666;28;20392;-85
2022/06/08 00:40:38;;;;;;;83.45;32.00;;;15.70;99.90;;;;;;10462775;28;20024;-81
2022/06/08 00:45:39;;;;;;;43.92;24.80;;;15.80;99.90;;;;;;10452604;28;20462;-81
2022/06/08 00:50:45;;;;;;;45.75;24.35;;;15.70;99.90;;;;;;10450750;28;20162;-85
2022/06/08 00:55:46;;;;;;;57.17;29.05;;;15.70;99.90;;;;;;10450768;28;20053;-85
2022/06/08 01:00:47;;;;;;;68.60;30.02;;;15.80;99.90;;;;;;10449491;28;20039;-85
2022/06/08 01:05:55;;;;;;;76.50;31.77;;;15.80;99.90;;;;;;10450192;28;20032;-83
2022/06/08 01:10:59;;;;;;;67.88;30.13;;;15.80;99.90;;;;;;10450627;28;20036;-82
2022/06/08 01:16:06;;;;;;;60.13;28.63;;;15.80;99.90;;;;;;10459553;28;20028;-82
2022/06/08 01:21:22;;;;;;;50.50;25.90;;;15.80;99.90;;;;;;10459432;28;20534;-83
2022/06/08 01:26:34;;;;;;;48.92;26.83;;;15.70;99.90;;;;;;10442528;28;20029;-84
2022/06/08 01:31:57;;;;;;;58.75;27.35;;;15.60;99.90;;;;;;10446738;28;20033;-85
2022/06/08 01:37:31;;;;;;;59.75;28.10;;;15.60;99.90;;;;;;10449605;28;20378;-82
2022/06/08 01:42:38;;;;;;;48.95;25.30;;;15.60;99.90;;;;;;10449464;28;20055;-82
2022/06/08 01:48:20;;;;;;;41.75;24.40;;;15.60;99.90;;;;;;10457004;28;20059;-83
2022/06/08 01:53:46;;;;;;;35.95;22.80;;;15.60;99.90;;;;;;10450989;28;20476;-85
2022/06/08 01:58:50;;;;;;;;;;;15.60;99.90;;;;;;10436349;28;20044;-82
2022/06/08 02:04:01;;;;;;;43.22;24.10;;;15.60;99.90;;;;;;10448785;28;19916;-84
2022/06/08 02:09:10;;;;;;;35.25;20.75;;;15.60;99.90;;;;;;10446017;28;20043;-82
2022/06/08 02:14:13;;;;;;;35.38;21.55;;;15.50;99.90;;;;;;10447089;28;20065;-84
2022/06/08 02:19:27;;;;;;;36.25;21.95;;;15.50;99.90;;;;;;10446499;28;20079;-83
2022/06/08 02:24:49;;;;;;;49.28;26.60;;;15.50;99.90;;;;;;10457153;28;20033;-86
2022/06/08 02:30:02;;;;;;;55.67;27.73;;;15.50;99.90;;;;;;10435039;28;20045;-84
2022/06/08 02:35:12;;;;;;;71.63;32.40;;;15.50;99.90;;;;;;10445589;28;20040;-84
2022/06/08 02:40:17;;;;;;;51.70;27.95;;;15.50;99.90;;;;;;10447725;28;20078;-84
2022/06/08 02:45:23;;;;;;;56.22;28.33;;;15.40;99.90;;;;;;10445694;28;20451;-84
2022/06/08 02:50:26;;;;;;;49.35;26.85;;;15.50;99.90;;;;;;10445769;28;20025;-84
2022/06/08 02:55:38;;;;;;;45.45;26.83;;;15.50;99.90;;;;;;10447008;28;20488;-82
2022/06/08 03:00:55;;;;;;;53.65;28.58;;;15.50;99.90;;;;;;10446330;28;20036;-83
2022/06/08 03:06:05;;;;;;;57.03;29.70;;;15.40;99.90;;;;;;10456700;28;20044;-82
2022/06/08 03:11:07;;;;;;;66.38;30.73;;;15.40;99.90;;;;;;10459794;28;20491;-82
2022/06/08 03:16:22;;;;;;;74.80;35.00;;;15.40;99.90;;;;;;10445264;28;20032;-84
2022/06/08 03:21:25;;;;;;;69.00;32.05;;;15.40;99.90;;;;;;10446045;28;20040;-82
2022/06/08 03:26:35;;;;;;;77.63;34.70;;;15.50;99.90;;;;;;10448485;28;20036;-84
2022/06/08 03:31:35;;;;;;;64.30;29.75;;;15.40;99.90;;;;;;10458071;28;20033;-83
2022/06/08 03:36:36;;;;;;;65.68;31.58;;;15.50;99.90;;;;;;10453783;28;20033;-84
2022/06/08 03:41:37;;;;;;;69.88;31.15;;;15.50;99.90;;;;;;10453436;28;20082;-84
2022/06/08 03:46:43;;;;;;;76.95;33.15;;;15.50;99.90;;;;;;10452722;28;20040;-85
2022/06/08 03:51:45;;;;;;;67.60;29.70;;;15.50;99.90;;;;;;10453226;28;20044;-83
2022/06/08 03:56:49;;;;;;;60.17;29.33;;;15.60;99.90;;;;;;10454665;28;20396;-83
2022/06/08 04:01:50;;;;;;;71.57;31.25;;;15.60;99.90;;;;;;10459951;28;20086;-85
2022/06/08 04:06:51;;;;;;;65.82;30.83;;;15.60;99.90;;;;;;10451157;28;20028;-85
2022/06/08 04:11:51;;;;;;;63.92;29.33;;;15.60;99.90;;;;;;10455303;28;20037;-82
2022/06/08 04:16:52;;;;;;;61.85;30.23;;;15.70;99.90;;;;;;10460087;28;20082;-82
2022/06/08 04:21:53;;;;;;;60.58;28.70;;;15.80;99.90;;;;;;10454571;28;20377;-82
2022/06/08 04:26:54;;;;;;;57.70;28.45;;;15.90;99.90;;;;;;10454897;28;20020;-83
2022/06/08 04:31:54;;;;;;;58.78;28.85;;;16.00;99.90;;;;;;10466435;28;20033;-81
2022/06/08 04:36:55;;;;;;;49.95;27.15;;;16.20;99.90;;;;;;10451942;28;20029;-84
2022/06/08 04:41:56;;;;;;;48.67;25.75;;;16.40;99.90;;;;;;10458380;28;20018;-85
2022/06/08 04:46:57;;;;;;;39.30;21.05;;;16.50;99.90;;;;;;10451235;28;20036;-84
2022/06/08 04:51:57;;;;;;;34.97;21.63;;;16.60;99.90;;;;;;10465047;28;20135;-83
2022/06/08 04:57:00;;;;;;;37.15;21.25;;;16.60;99.90;;;;;;10458503;28;20075;-85
2022/06/08 05:02:01;;;;;;;34.03;20.70;;;16.60;99.90;;;;;;10450560;28;20688;-85
2022/06/08 05:07:01;;;;;;;40.40;22.48;;;16.60;99.90;;;;;;10452291;28;20025;-85
2022/06/08 05:12:02;;;;;;;33.17;19.98;;;16.60;99.90;;;;;;10452600;28;20037;-82
2022/06/08 05:17:03;;;;;;;45.45;23.13;;;16.50;99.90;;;;;;10450904;28;20059;-83
2022/06/08 05:22:04;;;;;;;38.92;22.00;;;16.50;99.90;;;;;;10449421;28;20032;-83
2022/06/08 05:27:05;;;;;;;45.25;23.88;;;16.50;99.90;;;;;;10460515;28;20029;-84
2022/06/08 05:32:06;;;;;;;41.28;22.38;;;16.50;99.90;;;;;;10449899;28;20489;-83
2022/06/08 05:37:07;;;;;;;46.72;24.48;;;16.40;99.90;;;;;;10449697;28;20143;-82
2022/06/08 05:42:08;;;;;;;37.42;22.65;;;16.30;99.90;;;;;;10452598;28;20131;-82
2022/06/08 05:47:09;;;;;;;33.92;19.98;;;16.30;99.90;;;;;;10448927;28;20496;-83
2022/06/08 05:52:10;;;;;;;36.83;21.70;;;16.30;99.90;;;;;;10434932;28;20053;-84
2022/06/08 05:57:11;;;;;;;41.75;23.83;;;16.20;99.90;;;;;;10437031;28;20076;-83
2022/06/08 06:02:13;;;;;;;49.92;26.33;;;16.20;99.90;;;;;;10446640;28;20509;-84
2022/06/08 06:07:15;;;;;;;38.03;23.50;;;16.20;99.90;;;;;;10461991;28;20048;-83
2022/06/08 06:12:15;;;;;;;59.55;28.13;;;16.10;99.90;;;;;;10459285;28;20505;-82
2022/06/08 06:17:16;;;;;;;56.75;28.85;;;16.10;99.90;;;;;;10452506;28;20060;-83
2022/06/08 06:22:17;;;;;;;46.78;26.88;;;16.00;99.90;;;;;;10447670;28;20522;-82
2022/06/08 06:27:17;;;;;;;55.08;28.88;;;16.10;99.90;;;;;;10451852;28;20079;-85
2022/06/08 06:32:30;;;;;;;60.03;30.77;;;16.00;99.90;;;;;;10453247;28;20037;-87
2022/06/08 06:37:31;;;;;;;61.58;31.33;;;15.90;99.90;;;;;;10448003;28;20029;-83
2022/06/08 06:42:33;;;;;;;69.47;32.53;;;16.00;99.90;;;;;;10446694;28;20480;-83
2022/06/08 06:47:34;;;;;;;80.35;37.17;;;16.20;99.90;;;;;;10464384;28;20029;-83
2022/06/08 06:52:36;;;;;;;70.20;33.38;;;16.30;99.90;;;;;;10455962;28;20032;-86
2022/06/08 06:57:36;;;;;;;72.22;33.35;;;16.30;99.90;;;;;;10445667;28;20144;-83
2022/06/08 07:02:37;;;;;;;94.43;37.05;;;16.40;99.90;;;;;;10446592;28;20054;-83
2022/06/08 07:07:38;;;;;;;57.45;28.95;;;16.30;99.90;;;;;;10446469;28;20078;-86
2022/06/08 07:12:38;;;;;;;78.32;33.92;;;16.30;99.90;;;;;;10446111;28;20483;-84
2022/06/08 07:17:39;;;;;;;57.83;30.67;;;16.30;99.90;;;;;;10446649;28;20160;-82
2022/06/08 07:22:40;;;;;;;77.60;35.28;;;16.40;99.90;;;;;;10431368;28;20025;-85
2022/06/08 07:27:41;;;;;;;68.22;32.92;;;16.50;99.90;;;;;;10434144;28;20075;-85
2022/06/08 07:32:42;;;;;;;74.03;33.28;;;16.70;99.90;;;;;;10421952;28;20051;-84
2022/06/08 07:37:43;;;;;;;67.53;31.77;;;16.80;99.90;;;;;;10439522;28;20470;-86
2022/06/08 07:42:43;;;;;;;67.22;32.83;;;16.70;99.90;;;;;;10432857;28;20036;-84
2022/06/08 07:53:04;;;;;;;81.10;34.17;;;16.90;99.90;;;;;;10425888;28;20052;-83
2022/06/08 07:58:05;;;;;;;93.45;38.00;;;17.00;99.90;;;;;;10437422;28;20053;-84
2022/06/08 08:03:06;;;;;;;51.42;26.73;;;17.10;99.90;;;;;;10420358;28;20052;-84
2022/06/08 08:08:07;;;;;;;43.47;24.38;;;17.20;99.90;;;;;;10433031;28;20036;-85
2022/06/08 08:13:08;;;;;;;56.70;28.50;;;17.30;99.90;;;;;;10436411;28;20033;-86
2022/06/08 08:18:09;;;;;;;58.78;28.45;;;17.20;99.90;;;;;;10431655;28;20030;-87
2022/06/08 08:23:09;;;;;;;43.97;24.80;;;17.20;99.90;;;;;;10420120;28;20103;-85
2022/06/08 08:28:10;;;;;;;47.25;25.95;;;17.10;99.90;;;;;;10433252;28;20020;-86
2022/06/08 08:33:11;;;;;;;45.85;26.70;;;17.00;99.90;;;;;;10432554;28;20029;-85
2022/06/08 08:38:11;;;;;;;51.35;26.55;;;16.90;99.90;;;;;;10449906;28;20036;-84
2022/06/08 08:43:17;;;;;;;58.42;28.95;;;16.90;99.90;;;;;;10447687;28;20033;-85
2022/06/08 08:48:30;;;;;;;72.05;31.38;;;16.90;99.90;;;;;;10451039;28;20036;-87
2022/06/08 08:53:52;;;;;;;47.20;26.95;;;16.90;99.90;;;;;;10451495;28;20033;-86
2022/06/08 08:58:53;;;;;;;52.50;25.83;;;16.90;99.90;;;;;;10436599;28;20053;-85
2022/06/08 09:04:05;;;;;;;38.53;21.33;;;16.90;99.90;;;;;;10437115;28;20021;-86
2022/06/08 09:09:12;;;;;;;52.45;29.35;;;16.90;99.90;;;;;;10445778;28;20033;-86
2022/06/08 09:14:22;;;;;;;63.33;31.75;;;16.80;99.90;;;;;;10435986;28;20017;-86
2022/06/08 09:19:31;;;;;;;70.80;31.60;;;16.80;99.90;;;;;;10438341;28;20028;-85
2022/06/08 09:24:34;;;;;;;56.40;28.15;;;16.70;99.90;;;;;;10430330;28;20025;-86
2022/06/08 09:29:48;;;;;;;51.83;27.17;;;16.60;99.90;;;;;;10425717;28;20068;-86
2022/06/08 09:34:58;;;;;;;71.43;32.45;;;16.50;99.90;;;;;;10423174;28;20397;-86
2022/06/08 09:40:01;;;;;;;93.15;40.33;;;16.40;99.90;;;;;;10437028;28;20036;-86
2022/06/08 09:45:13;;;;;;;69.15;35.97;;;16.40;99.90;;;;;;10425238;28;20033;-87
2022/06/08 09:56:17;;;;;;;60.05;29.50;;;16.60;99.90;;;;;;10456393;28;20071;-86
2022/06/08 10:01:23;;;;;;;69.75;33.80;;;16.60;99.90;;;;;;10449738;28;20037;-86
2022/06/08 10:06:45;;;;;;;54.13;29.08;;;16.70;99.90;;;;;;10458659;28;20032;-85
2022/06/08 10:11:59;;;;;;;57.92;28.90;;;16.70;99.90;;;;;;10452601;28;20045;-85
2022/06/08 10:17:10;;;;;;;47.38;25.98;;;16.90;99.90;;;;;;10448802;28;20103;-85
2022/06/08 10:22:12;;;;;;;39.47;23.83;;;16.90;99.90;;;;;;10450433;28;20399;-87
2022/06/08 10:27:36;;;;;;;25.08;17.35;;;16.90;99.90;;;;;;10451025;28;20021;-84
2022/06/08 10:32:43;;;;;;;23.67;16.25;;;17.10;99.90;;;;;;10448687;28;20049;-83
2022/06/08 10:37:44;;;;;;;24.25;16.73;;;17.20;99.90;;;;;;10446449;28;20432;-85
2022/06/08 10:42:48;;;;;;;20.23;14.02;;;17.40;99.90;;;;;;10432253;28;20052;-84
2022/06/08 10:47:54;;;;;;;23.48;16.23;;;17.50;99.90;;;;;;10456503;28;20132;-87
2022/06/08 10:54:53;;;;;;;18.60;12.68;;;17.50;99.90;;;;;;10430085;28;20519;-86
2022/06/08 10:58:19;;;;;;;29.83;17.92;;;17.60;99.90;;;;;;10422097;28;20057;-85
2022/06/08 11:03:40;;;;;;;19.75;13.70;;;17.80;99.90;;;;;;10423422;28;20040;-84
2022/06/08 11:08:51;;;;;;;23.73;15.55;;;17.90;99.90;;;;;;10429265;28;20489;-82
2022/06/08 11:13:52;;;;;;;17.10;12.75;;;18.00;99.90;;;;;;10453568;28;20415;-84
2022/06/08 11:19:01;;;;;;;16.38;12.35;;;18.30;99.90;;;;;;10434279;28;20030;-86
2022/06/08 11:24:17;;;;;;;16.75;10.90;;;18.50;99.90;;;;;;10420562;28;20041;-83
2022/06/08 11:29:18;;;;;;;14.52;11.45;;;18.40;99.90;;;;;;10404327;28;20038;-84
2022/06/08 11:34:21;;;;;;;15.05;11.30;;;18.30;99.90;;;;;;10435146;28;20517;-90
2022/06/08 11:39:58;;;;;;;12.45;10.38;;;18.30;99.90;;;;;;10435932;28;20382;-85
2022/06/08 11:45:13;;;;;;;12.45;10.50;;;18.20;99.90;;;;;;10444062;28;20112;-85
2022/06/08 11:50:19;;;;;;;13.35;10.70;;;18.50;99.90;;;;;;10447333;28;20040;-84
2022/06/08 11:55:27;;;;;;;18.17;14.05;;;18.30;99.90;;;;;;10448025;28;20053;-84
2022/06/08 12:00:31;;;;;;;11.93;10.35;;;18.70;99.90;;;;;;10444274;28;20060;-85
2022/06/08 12:05:34;;;;;;;12.00;10.38;;;18.90;99.90;;;;;;10455040;28;20064;-85
2022/06/08 12:10:36;;;;;;;11.43;10.23;;;19.10;99.90;;;;;;10450267;28;20491;-88
2022/06/08 12:15:48;;;;;;;14.05;11.35;;;19.00;99.90;;;;;;10439672;28;20025;-87
2022/06/08 12:21:26;;;;;;;12.57;10.55;;;19.20;99.90;;;;;;10417685;28;20029;-86
2022/06/08 12:26:39;;;;;;;11.90;10.50;;;19.60;99.90;;;;;;10444306;28;20401;-86
2022/06/08 12:31:40;;;;;;;15.50;9.57;;;19.80;99.90;;;;;;10430462;28;20040;-85
2022/06/08 12:36:41;;;;;;;10.50;9.40;;;19.60;99.90;;;;;;10437518;28;20420;-87
2022/06/08 12:41:47;;;;;;;12.35;11.07;;;19.50;99.90;;;;;;10437267;28;20384;-86
2022/06/08 12:47:11;;;;;;;12.93;11.20;;;19.40;99.90;;;;;;10445779;28;20563;-87
2022/06/08 12:52:25;;;;;;;14.85;12.25;;;19.40;99.90;;;;;;10420999;28;20045;-86
2022/06/08 12:57:32;;;;;;;14.38;12.30;;;19.30;99.90;;;;;;10442283;28;20099;-85
2022/06/08 13:02:39;;;;;;;12.50;11.20;;;19.40;99.90;;;;;;10426476;28;20034;-87
2022/06/08 13:07:40;;;;;;;13.23;11.43;;;19.40;99.90;;;;;;10439446;28;20025;-85
2022/06/08 13:12:45;;;;;;;12.77;10.80;;;19.40;99.90;;;;;;10439006;28;20094;-86
2022/06/08 13:17:47;;;;;;;14.25;11.00;;;19.30;99.90;;;;;;10454873;28;20024;-89
2022/06/08 13:22:49;;;;;;;12.52;10.32;;;19.40;99.90;;;;;;10463649;28;20037;-85
2022/06/08 13:27:52;;;;;;;14.77;11.15;;;19.50;99.90;;;;;;10420764;28;20025;-88
2022/06/08 13:32:54;;;;;;;12.85;10.45;;;19.50;99.90;;;;;;10453909;28;20508;-85
2022/06/08 13:37:55;;;;;;;13.07;10.85;;;19.50;99.90;;;;;;10449224;28;20086;-85
2022/06/08 13:42:58;;;;;;;14.48;11.88;;;19.50;99.90;;;;;;10445697;28;20353;-85
2022/06/08 13:48:06;;;;;;;12.73;9.43;;;19.30;99.90;;;;;;10458819;28;20040;-86
2022/06/08 13:53:26;;;;;;;12.30;10.05;;;19.30;99.90;;;;;;10446718;28;20075;-87
2022/06/08 13:58:29;;;;;;;13.32;11.10;;;19.30;99.90;;;;;;10415189;28;20057;-85
2022/06/08 14:03:34;;;;;;;12.80;10.57;;;19.30;99.90;;;;;;10437640;28;20669;-88
2022/06/08 14:13:56;;;;;;;13.00;10.93;;;19.50;99.90;;;;;;10434745;28;19920;-87
2022/06/08 14:18:59;;;;;;;13.80;11.02;;;19.70;99.90;;;;;;10429054;28;20013;-86
2022/06/08 14:24:01;;;;;;;14.63;13.00;;;19.60;99.90;;;;;;10443239;28;20033;-85
2022/06/08 14:29:02;;;;;;;9.20;8.30;;;19.50;99.90;;;;;;10450128;28;20499;-84
2022/06/08 14:34:12;;;;;;;8.80;7.95;;;19.60;99.90;;;;;;10439067;28;20039;-85
2022/06/08 14:39:17;;;;;;;11.18;9.98;;;19.60;99.90;;;;;;10447783;28;20074;-85
2022/06/08 14:44:20;;;;;;;14.30;12.13;;;19.80;99.90;;;;;;10432522;28;20068;-88
2022/06/08 14:49:28;;;;;;;11.52;9.68;;;20.10;99.90;;;;;;10439185;28;20036;-87
2022/06/08 14:54:31;;;;;;;9.75;8.85;;;20.50;99.90;;;;;;10436924;28;20552;-88
2022/06/08 14:59:35;;;;;;;12.85;10.25;;;20.40;99.90;;;;;;10442804;28;20032;-88
2022/06/08 15:04:36;;;;;;;11.32;10.10;;;20.20;99.90;;;;;;10432179;28;20033;-87
2022/06/08 15:09:37;;;;;;;13.98;11.30;;;20.00;99.90;;;;;;10442194;28;20013;-88
2022/06/08 15:14:51;;;;;;;10.88;9.77;;;19.90;99.90;;;;;;10449135;28;20025;-85
2022/06/08 15:19:57;;;;;;;11.33;9.93;;;19.80;99.90;;;;;;10447469;28;20087;-84
2022/06/08 15:24:59;;;;;;;12.38;10.60;;;19.80;99.90;;;;;;10450912;28;20032;-84
2022/06/08 15:30:00;;;;;;;11.70;10.02;;;19.80;99.90;;;;;;10446705;28;20106;-86
2022/06/08 15:35:01;;;;;;;10.77;9.02;;;20.20;99.90;;;;;;10467738;28;20546;-85
2022/06/08 15:40:04;;;;;;;10.90;8.60;;;20.30;99.90;;;;;;10455110;28;20040;-87
2022/06/08 15:45:05;;;;;;;10.43;9.30;;;20.20;99.90;;;;;;10454005;28;20028;-85
2022/06/08 15:50:13;;;;;;;8.32;7.53;;;20.00;99.90;;;;;;10466078;28;20029;-86
2022/06/08 15:55:26;;;;;;;7.90;7.10;;;20.10;99.90;;;;;;10458566;28;20048;-86
2022/06/08 16:00:28;;;;;;;8.70;7.78;;;20.20;99.90;;;;;;10454273;28;20358;-85
2022/06/08 16:05:33;;;;;;;8.43;7.38;;;20.30;99.90;;;;;;10451825;28;20514;-86
2022/06/08 16:10:35;;;;;;;9.45;8.23;;;20.50;99.90;;;;;;10430132;28;20538;-86
2022/06/08 16:15:35;;;;;;;9.88;8.50;;;20.60;99.90;;;;;;10442278;28;20192;-84
2022/06/08 16:20:36;;;;;;;11.63;9.25;;;20.40;99.90;;;;;;10452157;28;20122;-84
2022/06/08 16:25:41;;;;;;;9.75;8.75;;;20.50;99.90;;;;;;10457789;28;20419;-85
2022/06/08 16:30:42;;;;;;;11.10;9.37;;;20.50;99.90;;;;;;10431603;28;20079;-84
2022/06/08 16:35:44;;;;;;;10.63;9.52;;;20.60;99.90;;;;;;10452629;28;20302;-86
2022/06/08 16:40:48;;;;;;;9.52;8.18;;;20.40;99.90;;;;;;10457924;28;20029;-85
2022/06/08 16:45:49;;;;;;;9.95;8.95;;;20.40;99.90;;;;;;10454445;28;20035;-85
2022/06/08 16:50:50;;;;;;;9.30;8.40;;;20.20;99.90;;;;;;10460219;28;20033;-85
2022/06/08 16:55:51;;;;;;;10.15;8.75;;;20.00;99.90;;;;;;10448781;28;20107;-84
2022/06/08 17:00:52;;;;;;;10.52;8.32;;;19.80;99.90;;;;;;10451784;28;20570;-85
2022/06/08 17:05:53;;;;;;;9.98;8.98;;;19.70;99.90;;;;;;10457178;28;20036;-84
2022/06/08 17:16:13;;;;;;;12.55;10.25;;;19.60;99.90;;;;;;10454067;28;20548;-84
2022/06/08 17:21:14;;;;;;;10.30;8.80;;;19.60;99.90;;;;;;10451323;28;20219;-84
2022/06/08 17:26:18;;;;;;;9.98;8.25;;;19.50;99.90;;;;;;10453103;28;20048;-85
2022/06/08 17:31:19;;;;;;;10.43;7.13;;;19.30;99.90;;;;;;10448125;28;20780;-84
2022/06/08 17:36:20;;;;;;;12.25;9.45;;;19.20;99.90;;;;;;10449476;28;20044;-84
2022/06/08 17:41:21;;;;;;;12.73;9.43;;;19.10;99.90;;;;;;10446847;28;20040;-86
2022/06/08 17:46:23;;;;;;;15.07;10.52;;;19.10;99.90;;;;;;10447635;28;20032;-85
2022/06/08 17:51:24;;;;;;;13.40;10.35;;;19.00;99.90;;;;;;10448034;28;20044;-87
2022/06/08 17:56:24;;;;;;;14.02;10.90;;;18.90;99.90;;;;;;10446750;28;20788;-84
2022/06/08 18:01:25;;;;;;;15.43;11.90;;;18.80;99.90;;;;;;10453318;28;20123;-84
2022/06/08 18:18:37;;;;;;;17.23;13.07;;;18.70;99.90;;;;;;10513859;27;20406;-86
2022/06/08 18:23:38;;;;;;;18.85;13.77;;;18.80;99.90;;;;;;10512438;28;20041;-89
2022/06/08 18:28:39;;;;;;;20.23;14.75;;;18.60;99.90;;;;;;10515696;28;20501;-88
2022/06/08 18:33:40;;;;;;;20.83;15.10;;;18.40;99.90;;;;;;10494629;28;20039;-87
2022/06/08 18:38:41;;;;;;;24.23;15.35;;;18.20;99.90;;;;;;10498973;28;20430;-86
2022/06/08 18:43:45;;;;;;;25.25;16.98;;;18.00;99.90;;;;;;10489837;28;20090;-87
2022/06/08 18:48:47;;;;;;;25.90;17.35;;;17.90;99.90;;;;;;10504407;28;20087;-84
2022/06/08 18:53:48;;;;;;;29.20;18.80;;;17.80;99.90;;;;;;10485058;28;20020;-87
2022/06/08 18:58:54;;;;;;;27.02;20.33;;;17.80;99.90;;;;;;10503418;28;20108;-87
2022/06/08 19:03:56;;;;;;;33.65;22.15;;;17.70;99.90;;;;;;10500442;28;20047;-87
2022/06/08 19:08:57;;;;;;;34.00;22.77;;;17.70;99.90;;;;;;10485445;28;20021;-86
2022/06/08 19:13:59;;;;;;;34.90;23.23;;;17.60;99.90;;;;;;10508335;28;20118;-90
2022/06/08 19:24:19;;;;;;;35.17;24.45;;;17.40;99.90;;;;;;10430292;28;20045;-85
2022/06/08 19:29:20;;;;;;;37.53;24.45;;;17.40;99.90;;;;;;10419061;28;20505;-84
2022/06/08 19:34:21;;;;;;;34.65;24.42;;;17.30;99.90;;;;;;10418873;28;20039;-84
2022/06/08 19:39:22;;;;;;;34.33;24.00;;;17.40;99.90;;;;;;10427030;28;20021;-86
2022/06/08 19:44:28;;;;;;;33.72;24.00;;;17.30;99.90;;;;;;10411738;28;20412;-83
2022/06/08 19:49:29;;;;;;;35.75;24.92;;;17.30;99.90;;;;;;10415298;28;20387;-85
2022/06/08 19:54:30;;;;;;;32.42;23.80;;;17.30;99.90;;;;;;10418870;28;20037;-84
2022/06/08 19:59:31;;;;;;;34.78;23.20;;;17.20;99.90;;;;;;10410440;28;20120;-83
2022/06/08 20:04:31;;;;;;;37.22;24.80;;;17.30;99.90;;;;;;10451899;28;20056;-86
2022/06/08 20:09:32;;;;;;;40.05;25.60;;;17.20;99.90;;;;;;10409550;28;20369;-85
2022/06/08 20:14:33;;;;;;;38.08;25.77;;;17.20;99.90;;;;;;10406517;28;20396;-85
2022/06/08 20:19:34;;;;;;;37.20;25.63;;;17.20;99.90;;;;;;10406077;28;20046;-84
2022/06/08 20:24:35;;;;;;;40.30;26.98;;;17.20;99.90;;;;;;10408816;28;20152;-85
2022/06/08 20:29:36;;;;;;;40.75;27.10;;;17.10;99.90;;;;;;10409009;28;20045;-84
2022/06/08 20:34:36;;;;;;;36.85;25.55;;;17.10;99.90;;;;;;10420638;28;20021;-85
2022/06/08 20:39:37;;;;;;;40.45;25.30;;;17.10;99.90;;;;;;10411842;28;20076;-84
2022/06/08 20:44:38;;;;;;;40.10;26.05;;;17.20;99.90;;;;;;10407308;28;20059;-86
2022/06/08 20:49:44;;;;;;;42.72;27.45;;;17.30;99.90;;;;;;10420849;28;20067;-86
2022/06/08 20:54:45;;;;;;;;;;;17.40;99.90;;;;;;10408713;28;20087;-87
2022/06/08 20:59:46;;;;;;;51.40;29.75;;;17.30;99.90;;;;;;10407231;28;19970;-86
2022/06/08 21:04:47;;;;;;;54.60;31.55;;;17.30;99.90;;;;;;10412019;28;20684;-86
2022/06/08 21:09:48;;;;;;;63.97;32.45;;;17.20;99.90;;;;;;10405597;28;20040;-83
2022/06/08 21:14:49;;;;;;;56.60;31.38;;;17.10;99.90;;;;;;10406387;28;20503;-85
2022/06/08 21:19:50;;;;;;;59.08;32.20;;;17.00;99.90;;;;;;10406544;28;20050;-83
2022/06/08 21:24:51;;;;;;;59.13;30.80;;;17.00;99.90;;;;;;10404911;28;20045;-85
2022/06/08 21:29:51;;;;;;;64.18;32.72;;;17.00;99.90;;;;;;10404038;28;20059;-86
2022/06/08 21:34:52;;;;;;;62.58;32.92;;;17.10;99.90;;;;;;10414259;28;20091;-84
2022/06/08 21:39:53;;;;;;;68.88;34.38;;;17.10;99.90;;;;;;10405308;28;20041;-85
2022/06/08 21:44:54;;;;;;;51.60;29.75;;;17.10;99.90;;;;;;10405127;28;20468;-84
2022/06/08 21:49:55;;;;;;;58.83;31.73;;;17.00;99.90;;;;;;10403353;28;20116;-86
2022/06/08 21:54:55;;;;;;;59.53;33.42;;;17.00;99.90;;;;;;10406431;28;20037;-83
2022/06/08 21:59:56;;;;;;;54.72;30.08;;;17.00;99.90;;;;;;10413881;28;20041;-85
2022/06/08 22:04:57;;;;;;;74.93;36.42;;;16.90;99.90;;;;;;10412759;28;20045;-85
2022/06/08 22:09:57;;;;;;;77.47;36.70;;;16.80;99.90;;;;;;10404906;28;20022;-86
2022/06/08 22:14:58;;;;;;;79.03;36.72;;;16.80;99.90;;;;;;10402904;28;20086;-85
2022/06/08 22:20:00;;;;;;;83.63;37.78;;;16.60;99.90;;;;;;10403577;28;20512;-86
2022/06/08 22:25:01;;;;;;;81.70;36.53;;;16.60;99.90;;;;;;10416396;28;20476;-86
2022/06/08 22:30:09;;;;;;;69.13;34.05;;;16.50;99.90;;;;;;10416185;28;20021;-86
2022/06/08 22:35:13;;;;;;;49.00;29.25;;;16.40;99.90;;;;;;10411028;28;20029;-86
2022/06/08 22:40:17;;;;;;;53.42;29.35;;;16.50;99.90;;;;;;10403556;28;20025;-87
2022/06/08 22:45:22;;;;;;;32.08;22.25;;;16.40;99.90;;;;;;10403016;28;20034;-84
2022/06/08 22:50:24;;;;;;;;;;;16.30;99.90;;;;;;10405686;28;20381;-84
2022/06/08 22:55:34;;;;;;;70.07;35.95;;;16.30;99.90;;;;;;10443538;28;20043;-84
2022/06/08 23:00:37;;;;;;;82.63;39.17;;;16.30;99.90;;;;;;10411551;28;20044;-84
2022/06/08 23:05:39;;;;;;;82.68;41.25;;;16.30;99.90;;;;;;10419106;28;20064;-87
2022/06/08 23:10:40;;;;;;;91.93;40.33;;;16.30;99.90;;;;;;10412956;28;20124;-82
2022/06/08 23:20:27;;;;;;;78.13;37.88;;;16.30;99.90;;;;;;10397548;28;20037;-84
2022/06/08 23:21:01;;;;;;;71.13;37.40;;;16.30;99.90;;;;;;10410379;28;20060;-85
2022/06/08 23:26:01;;;;;;;65.90;34.22;;;16.30;99.90;;;;;;10409901;28;20447;-86
2022/06/08 23:31:02;;;;;;;85.35;40.25;;;16.30;99.90;;;;;;10410676;28;20082;-85
2022/06/08 23:36:03;;;;;;;64.50;34.67;;;16.30;99.90;;;;;;10419308;28;20029;-83
2022/06/08 23:41:05;;;;;;;85.20;38.75;;;16.30;99.90;;;;;;10409720;28;20061;-85
2022/06/08 23:46:05;;;;;;;81.22;38.47;;;16.20;99.90;;;;;;10408627;28;20045;-84
2022/06/08 23:51:06;;;;;;;79.82;37.60;;;16.10;99.90;;;;;;10429415;28;20029;-86
2022/06/08 23:56:07;;;;;;;75.82;37.88;;;16.10;99.90;;;;;;10409106;28;20029;-85
